Terminal Aerodrome Forecast
Issued by NWS Duluth, MN

Home | Current Version | Previous Version | Text Only | Print | Product List | Glossary On
Versions: 1 2 3 4 5 6 7 8 9 10 11 12 13 14
000
FTUS43 KDLH 280500
TAFINL
TAF
KINL 280520Z 2806/0106 VRB03KT P6SM BKN250
     FM281200 18006KT P6SM BKN250
     FM281900 21009G15KT P6SM SCT090 BKN250
     FM010300 21007KT P6SM -SN SCT018 OVC060=

USA.gov is the U.S. government's official web portal to all federal, state and local government web resources and services.